sensor_id;sensor_type;location;lat;lon;timestamp;temperature;humidity
47825;DHT22;33589;48.242;14.676;2024-01-06T00:01:37;23.70;66.50
47825;DHT22;33589;48.242;14.676;2024-01-06T00:04:03;23.70;66.50
47825;DHT22;33589;48.242;14.676;2024-01-06T00:06:29;23.70;66.60
47825;DHT22;33589;48.242;14.676;2024-01-06T00:08:54;23.70;66.60
47825;DHT22;33589;48.242;14.676;2024-01-06T00:11:21;23.70;67.30
47825;DHT22;33589;48.242;14.676;2024-01-06T00:13:47;23.70;66.50
47825;DHT22;33589;48.242;14.676;2024-01-06T00:16:16;23.70;66.60
47825;DHT22;33589;48.242;14.676;2024-01-06T00:18:41;23.80;66.50
47825;DHT22;33589;48.242;14.676;2024-01-06T00:21:08;23.80;66.40
47825;DHT22;33589;48.242;14.676;2024-01-06T00:23:33;23.80;66.40
47825;DHT22;33589;48.242;14.676;2024-01-06T00:25:59;23.70;66.50
47825;DHT22;33589;48.242;14.676;2024-01-06T00:28:25;23.70;66.60
47825;DHT22;33589;48.242;14.676;2024-01-06T00:30:51;23.70;66.60
47825;DHT22;33589;48.242;14.676;2024-01-06T00:33:17;23.70;66.60
47825;DHT22;33589;48.242;14.676;2024-01-06T00:35:43;23.70;66.60
47825;DHT22;33589;48.242;14.676;2024-01-06T00:38:08;23.70;66.70
47825;DHT22;33589;48.242;14.676;2024-01-06T00:40:34;23.60;66.80
47825;DHT22;33589;48.242;14.676;2024-01-06T00:43:00;23.60;66.60
47825;DHT22;33589;48.242;14.676;2024-01-06T00:45:26;23.60;66.70
47825;DHT22;33589;48.242;14.676;2024-01-06T00:47:52;23.60;66.70
47825;DHT22;33589;48.242;14.676;2024-01-06T00:50:18;23.60;66.60
47825;DHT22;33589;48.242;14.676;2024-01-06T00:52:44;23.60;66.60
47825;DHT22;33589;48.242;14.676;2024-01-06T00:55:11;23.60;66.70
47825;DHT22;33589;48.242;14.676;2024-01-06T00:57:36;23.60;66.80
47825;DHT22;33589;48.242;14.676;2024-01-06T01:00:06;23.60;66.80
47825;DHT22;33589;48.242;14.676;2024-01-06T01:02:32;23.60;66.90
47825;DHT22;33589;48.242;14.676;2024-01-06T01:04:58;23.50;66.90
47825;DHT22;33589;48.242;14.676;2024-01-06T01:07:24;23.50;66.90
47825;DHT22;33589;48.242;14.676;2024-01-06T01:09:50;23.50;66.90
47825;DHT22;33589;48.242;14.676;2024-01-06T01:12:15;23.50;66.90
47825;DHT22;33589;48.242;14.676;2024-01-06T01:14:41;23.50;66.80
47825;DHT22;33589;48.242;14.676;2024-01-06T01:17:07;23.50;67.00
47825;DHT22;33589;48.242;14.676;2024-01-06T01:19:33;23.50;66.90
47825;DHT22;33589;48.242;14.676;2024-01-06T01:21:59;23.50;67.00
47825;DHT22;33589;48.242;14.676;2024-01-06T01:24:24;23.50;66.90
47825;DHT22;33589;48.242;14.676;2024-01-06T01:26:50;23.50;66.90
47825;DHT22;33589;48.242;14.676;2024-01-06T01:29:16;23.50;66.80
47825;DHT22;33589;48.242;14.676;2024-01-06T01:31:42;23.50;66.70
47825;DHT22;33589;48.242;14.676;2024-01-06T01:34:08;23.60;66.80
47825;DHT22;33589;48.242;14.676;2024-01-06T01:36:34;23.60;66.70
47825;DHT22;33589;48.242;14.676;2024-01-06T01:38:59;23.50;66.70
47825;DHT22;33589;48.242;14.676;2024-01-06T01:41:25;23.60;66.60
47825;DHT22;33589;48.242;14.676;2024-01-06T01:43:51;23.60;66.60
47825;DHT22;33589;48.242;14.676;2024-01-06T01:46:30;23.60;66.60
47825;DHT22;33589;48.242;14.676;2024-01-06T01:48:57;23.60;66.60
47825;DHT22;33589;48.242;14.676;2024-01-06T01:51:24;23.50;66.60
47825;DHT22;33589;48.242;14.676;2024-01-06T01:53:52;23.50;66.60
47825;DHT22;33589;48.242;14.676;2024-01-06T01:56:19;23.50;66.60
47825;DHT22;33589;48.242;14.676;2024-01-06T01:58:46;23.50;66.70
47825;DHT22;33589;48.242;14.676;2024-01-06T02:01:12;23.60;66.60
47825;DHT22;33589;48.242;14.676;2024-01-06T02:03:41;23.60;66.50
47825;DHT22;33589;48.242;14.676;2024-01-06T02:06:06;23.60;66.50
47825;DHT22;33589;48.242;14.676;2024-01-06T02:08:32;23.60;66.50
47825;DHT22;33589;48.242;14.676;2024-01-06T02:10:58;23.50;66.60
47825;DHT22;33589;48.242;14.676;2024-01-06T02:13:24;23.50;67.30
47825;DHT22;33589;48.242;14.676;2024-01-06T02:15:50;23.50;66.50
47825;DHT22;33589;48.242;14.676;2024-01-06T02:18:16;23.60;66.50
47825;DHT22;33589;48.242;14.676;2024-01-06T02:20:43;23.50;66.60
47825;DHT22;33589;48.242;14.676;2024-01-06T02:23:10;23.50;66.60
47825;DHT22;33589;48.242;14.676;2024-01-06T02:25:35;23.50;66.60
47825;DHT22;33589;48.242;14.676;2024-01-06T02:28:01;23.50;66.60
47825;DHT22;33589;48.242;14.676;2024-01-06T02:30:27;23.50;66.60
47825;DHT22;33589;48.242;14.676;2024-01-06T02:32:53;23.50;66.60
47825;DHT22;33589;48.242;14.676;2024-01-06T02:35:20;23.50;66.60
47825;DHT22;33589;48.242;14.676;2024-01-06T02:37:46;23.50;66.40
47825;DHT22;33589;48.242;14.676;2024-01-06T02:40:13;23.50;66.40
47825;DHT22;33589;48.242;14.676;2024-01-06T02:42:39;23.60;66.50
47825;DHT22;33589;48.242;14.676;2024-01-06T02:45:05;23.60;66.50
47825;DHT22;33589;48.242;14.676;2024-01-06T02:47:31;23.50;66.50
47825;DHT22;33589;48.242;14.676;2024-01-06T02:49:56;23.50;66.50
47825;DHT22;33589;48.242;14.676;2024-01-06T02:52:22;23.50;66.60
47825;DHT22;33589;48.242;14.676;2024-01-06T02:54:48;23.50;66.60
47825;DHT22;33589;48.242;14.676;2024-01-06T02:57:14;23.50;66.60
47825;DHT22;33589;48.242;14.676;2024-01-06T02:59:40;23.50;66.60
47825;DHT22;33589;48.242;14.676;2024-01-06T03:02:06;23.50;66.50
47825;DHT22;33589;48.242;14.676;2024-01-06T03:04:32;23.50;66.40
47825;DHT22;33589;48.242;14.676;2024-01-06T03:06:58;23.50;66.30
47825;DHT22;33589;48.242;14.676;2024-01-06T03:09:24;23.60;66.40
47825;DHT22;33589;48.242;14.676;2024-01-06T03:11:49;23.60;66.30
47825;DHT22;33589;48.242;14.676;2024-01-06T03:14:15;23.50;66.30
47825;DHT22;33589;48.242;14.676;2024-01-06T03:16:41;23.50;66.40
47825;DHT22;33589;48.242;14.676;2024-01-06T03:19:07;23.50;66.40
47825;DHT22;33589;48.242;14.676;2024-01-06T03:21:33;23.50;66.30
47825;DHT22;33589;48.242;14.676;2024-01-06T03:23:59;23.50;66.30
47825;DHT22;33589;48.242;14.676;2024-01-06T03:26:25;23.50;66.50
47825;DHT22;33589;48.242;14.676;2024-01-06T03:28:51;23.50;66.50
47825;DHT22;33589;48.242;14.676;2024-01-06T03:31:16;23.50;66.50
47825;DHT22;33589;48.242;14.676;2024-01-06T03:33:45;23.50;66.40
47825;DHT22;33589;48.242;14.676;2024-01-06T03:36:13;23.50;66.40
47825;DHT22;33589;48.242;14.676;2024-01-06T03:38:41;23.50;66.40
47825;DHT22;33589;48.242;14.676;2024-01-06T03:41:07;23.50;66.40
47825;DHT22;33589;48.242;14.676;2024-01-06T03:43:33;23.50;66.20
47825;DHT22;33589;48.242;14.676;2024-01-06T03:45:58;23.50;66.20
47825;DHT22;33589;48.242;14.676;2024-01-06T03:48:26;23.50;66.30
47825;DHT22;33589;48.242;14.676;2024-01-06T03:50:51;23.50;66.20
47825;DHT22;33589;48.242;14.676;2024-01-06T03:53:17;23.50;66.20
47825;DHT22;33589;48.242;14.676;2024-01-06T03:55:43;23.50;66.40
47825;DHT22;33589;48.242;14.676;2024-01-06T03:58:08;23.50;66.30
47825;DHT22;33589;48.242;14.676;2024-01-06T04:00:34;23.50;66.20
47825;DHT22;33589;48.242;14.676;2024-01-06T04:03:00;23.50;66.20
47825;DHT22;33589;48.242;14.676;2024-01-06T04:05:26;23.50;66.20
47825;DHT22;33589;48.242;14.676;2024-01-06T04:07:51;23.50;66.30
47825;DHT22;33589;48.242;14.676;2024-01-06T04:10:17;23.50;66.40
47825;DHT22;33589;48.242;14.676;2024-01-06T04:12:43;23.50;66.40
47825;DHT22;33589;48.242;14.676;2024-01-06T04:15:09;23.50;66.40
47825;DHT22;33589;48.242;14.676;2024-01-06T04:17:34;23.50;66.40
47825;DHT22;33589;48.242;14.676;2024-01-06T04:20:00;23.50;66.40
47825;DHT22;33589;48.242;14.676;2024-01-06T04:22:26;23.50;66.40
47825;DHT22;33589;48.242;14.676;2024-01-06T04:24:52;23.50;66.60
47825;DHT22;33589;48.242;14.676;2024-01-06T04:27:17;23.40;66.60
47825;DHT22;33589;48.242;14.676;2024-01-06T04:29:43;23.40;66.70
47825;DHT22;33589;48.242;14.676;2024-01-06T04:32:09;23.40;67.00
47825;DHT22;33589;48.242;14.676;2024-01-06T04:34:35;23.40;67.00
47825;DHT22;33589;48.242;14.676;2024-01-06T04:37:01;23.40;67.00
47825;DHT22;33589;48.242;14.676;2024-01-06T04:39:26;23.30;67.00
47825;DHT22;33589;48.242;14.676;2024-01-06T04:41:52;23.30;67.10
47825;DHT22;33589;48.242;14.676;2024-01-06T04:44:20;23.30;67.10
47825;DHT22;33589;48.242;14.676;2024-01-06T04:46:46;23.30;67.10
47825;DHT22;33589;48.242;14.676;2024-01-06T04:49:12;23.20;67.10
47825;DHT22;33589;48.242;14.676;2024-01-06T04:51:38;23.30;67.30
47825;DHT22;33589;48.242;14.676;2024-01-06T04:54:03;23.20;67.40
47825;DHT22;33589;48.242;14.676;2024-01-06T04:56:29;23.20;67.40
47825;DHT22;33589;48.242;14.676;2024-01-06T04:58:55;23.20;67.60
47825;DHT22;33589;48.242;14.676;2024-01-06T05:01:23;23.20;67.50
47825;DHT22;33589;48.242;14.676;2024-01-06T05:03:48;23.20;67.50
47825;DHT22;33589;48.242;14.676;2024-01-06T05:06:14;23.20;67.50
47825;DHT22;33589;48.242;14.676;2024-01-06T05:08:40;23.20;67.50
47825;DHT22;33589;48.242;14.676;2024-01-06T05:11:10;23.20;67.40
47825;DHT22;33589;48.242;14.676;2024-01-06T05:13:37;23.30;67.30
47825;DHT22;33589;48.242;14.676;2024-01-06T05:16:03;23.30;67.40
47825;DHT22;33589;48.242;14.676;2024-01-06T05:18:29;23.30;67.40
47825;DHT22;33589;48.242;14.676;2024-01-06T05:20:55;23.30;67.30
47825;DHT22;33589;48.242;14.676;2024-01-06T05:23:22;23.30;67.20
47825;DHT22;33589;48.242;14.676;2024-01-06T05:25:47;23.30;67.30
47825;DHT22;33589;48.242;14.676;2024-01-06T05:28:13;23.30;67.30
47825;DHT22;33589;48.242;14.676;2024-01-06T05:30:39;23.30;67.10
47825;DHT22;33589;48.242;14.676;2024-01-06T05:33:05;23.40;67.20
47825;DHT22;33589;48.242;14.676;2024-01-06T05:35:31;23.30;67.10
47825;DHT22;33589;48.242;14.676;2024-01-06T05:37:56;23.30;67.10
47825;DHT22;33589;48.242;14.676;2024-01-06T05:40:22;23.30;67.10
47825;DHT22;33589;48.242;14.676;2024-01-06T05:42:48;23.30;67.10
47825;DHT22;33589;48.242;14.676;2024-01-06T05:45:14;23.30;67.80
47825;DHT22;33589;48.242;14.676;2024-01-06T05:47:40;23.40;67.10
47825;DHT22;33589;48.242;14.676;2024-01-06T05:50:06;23.30;67.00
47825;DHT22;33589;48.242;14.676;2024-01-06T05:52:34;23.40;67.10
47825;DHT22;33589;48.242;14.676;2024-01-06T05:55:00;23.40;67.10
47825;DHT22;33589;48.242;14.676;2024-01-06T05:57:26;23.30;67.00
47825;DHT22;33589;48.242;14.676;2024-01-06T05:59:52;23.30;67.00
47825;DHT22;33589;48.242;14.676;2024-01-06T06:02:18;23.40;67.00
47825;DHT22;33589;48.242;14.676;2024-01-06T06:04:43;23.40;66.80
47825;DHT22;33589;48.242;14.676;2024-01-06T06:07:09;23.40;66.80
47825;DHT22;33589;48.242;14.676;2024-01-06T06:09:34;23.40;66.90
47825;DHT22;33589;48.242;14.676;2024-01-06T06:12:00;23.40;67.00
47825;DHT22;33589;48.242;14.676;2024-01-06T06:14:26;23.40;66.80
47825;DHT22;33589;48.242;14.676;2024-01-06T06:16:52;23.30;66.80
47825;DHT22;33589;48.242;14.676;2024-01-06T06:19:17;23.40;67.00
47825;DHT22;33589;48.242;14.676;2024-01-06T06:21:44;23.40;66.80
47825;DHT22;33589;48.242;14.676;2024-01-06T06:24:10;23.60;66.30
47825;DHT22;33589;48.242;14.676;2024-01-06T06:26:35;23.80;65.70
47825;DHT22;33589;48.242;14.676;2024-01-06T06:29:02;24.00;65.30
47825;DHT22;33589;48.242;14.676;2024-01-06T06:31:28;24.20;65.20
47825;DHT22;33589;48.242;14.676;2024-01-06T06:33:53;24.10;64.80
47825;DHT22;33589;48.242;14.676;2024-01-06T06:36:19;24.20;64.60
47825;DHT22;33589;48.242;14.676;2024-01-06T06:38:45;24.20;64.50
47825;DHT22;33589;48.242;14.676;2024-01-06T06:41:11;24.20;64.40
47825;DHT22;33589;48.242;14.676;2024-01-06T06:43:37;24.20;64.50
47825;DHT22;33589;48.242;14.676;2024-01-06T06:46:03;24.10;64.80
47825;DHT22;33589;48.242;14.676;2024-01-06T06:48:28;23.90;65.20
47825;DHT22;33589;48.242;14.676;2024-01-06T06:50:54;23.80;65.60
47825;DHT22;33589;48.242;14.676;2024-01-06T06:53:20;23.70;66.00
47825;DHT22;33589;48.242;14.676;2024-01-06T06:55:46;23.60;66.20
47825;DHT22;33589;48.242;14.676;2024-01-06T06:58:12;23.60;66.50
47825;DHT22;33589;48.242;14.676;2024-01-06T07:00:38;23.70;66.20
47825;DHT22;33589;48.242;14.676;2024-01-06T07:03:04;23.80;65.90
47825;DHT22;33589;48.242;14.676;2024-01-06T07:05:30;23.70;66.30
47825;DHT22;33589;48.242;14.676;2024-01-06T07:07:56;23.70;66.00
47825;DHT22;33589;48.242;14.676;2024-01-06T07:10:22;23.60;66.20
47825;DHT22;33589;48.242;14.676;2024-01-06T07:12:48;23.70;66.20
47825;DHT22;33589;48.242;14.676;2024-01-06T07:15:14;23.70;66.20
47825;DHT22;33589;48.242;14.676;2024-01-06T07:17:39;23.60;66.20
47825;DHT22;33589;48.242;14.676;2024-01-06T07:20:08;23.50;66.20
47825;DHT22;33589;48.242;14.676;2024-01-06T07:22:34;23.50;66.30
47825;DHT22;33589;48.242;14.676;2024-01-06T07:25:03;23.70;66.20
47825;DHT22;33589;48.242;14.676;2024-01-06T07:27:28;23.70;66.20
47825;DHT22;33589;48.242;14.676;2024-01-06T07:29:54;23.70;66.30
47825;DHT22;33589;48.242;14.676;2024-01-06T07:32:22;23.70;66.10
47825;DHT22;33589;48.242;14.676;2024-01-06T07:34:48;23.70;66.00
47825;DHT22;33589;48.242;14.676;2024-01-06T07:37:13;23.70;66.20
47825;DHT22;33589;48.242;14.676;2024-01-06T07:39:39;23.70;66.20
47825;DHT22;33589;48.242;14.676;2024-01-06T07:42:05;23.70;66.10
47825;DHT22;33589;48.242;14.676;2024-01-06T07:44:30;23.80;66.00
47825;DHT22;33589;48.242;14.676;2024-01-06T07:46:56;23.80;66.10
47825;DHT22;33589;48.242;14.676;2024-01-06T07:49:22;23.70;66.20
47825;DHT22;33589;48.242;14.676;2024-01-06T07:51:48;23.70;66.30
47825;DHT22;33589;48.242;14.676;2024-01-06T07:54:13;23.90;66.10
47825;DHT22;33589;48.242;14.676;2024-01-06T07:56:39;24.00;65.70
47825;DHT22;33589;48.242;14.676;2024-01-06T07:59:05;24.10;65.20
47825;DHT22;33589;48.242;14.676;2024-01-06T08:01:31;24.10;65.10
47825;DHT22;33589;48.242;14.676;2024-01-06T08:03:58;24.10;65.30
47825;DHT22;33589;48.242;14.676;2024-01-06T08:06:24;24.00;65.40
47825;DHT22;33589;48.242;14.676;2024-01-06T08:08:51;24.10;65.40
47825;DHT22;33589;48.242;14.676;2024-01-06T08:11:16;24.10;65.10
47825;DHT22;33589;48.242;14.676;2024-01-06T08:13:42;24.30;64.90
47825;DHT22;33589;48.242;14.676;2024-01-06T08:16:08;24.30;65.40
47825;DHT22;33589;48.242;14.676;2024-01-06T08:18:34;24.00;66.00
47825;DHT22;33589;48.242;14.676;2024-01-06T08:20:59;23.90;66.60
47825;DHT22;33589;48.242;14.676;2024-01-06T08:23:25;23.90;66.20
47825;DHT22;33589;48.242;14.676;2024-01-06T08:25:51;23.90;66.60
47825;DHT22;33589;48.242;14.676;2024-01-06T08:28:17;23.70;66.80
47825;DHT22;33589;48.242;14.676;2024-01-06T08:30:44;23.60;66.40
47825;DHT22;33589;48.242;14.676;2024-01-06T08:33:10;23.60;63.00
47825;DHT22;33589;48.242;14.676;2024-01-06T08:35:36;23.60;63.40
47825;DHT22;33589;48.242;14.676;2024-01-06T08:38:09;23.60;64.90
47825;DHT22;33589;48.242;14.676;2024-01-06T08:40:35;23.50;65.10
47825;DHT22;33589;48.242;14.676;2024-01-06T08:43:01;23.50;65.30
47825;DHT22;33589;48.242;14.676;2024-01-06T08:45:27;23.60;65.30
47825;DHT22;33589;48.242;14.676;2024-01-06T08:47:53;23.60;65.10
47825;DHT22;33589;48.242;14.676;2024-01-06T08:50:19;23.60;65.10
47825;DHT22;33589;48.242;14.676;2024-01-06T08:52:45;23.70;65.40
47825;DHT22;33589;48.242;14.676;2024-01-06T08:55:11;23.70;64.90
47825;DHT22;33589;48.242;14.676;2024-01-06T09:02:34;24.30;76.40
47825;DHT22;33589;48.242;14.676;2024-01-06T09:05:00;24.30;69.50
47825;DHT22;33589;48.242;14.676;2024-01-06T09:07:26;24.30;72.60
47825;DHT22;33589;48.242;14.676;2024-01-06T09:09:51;24.20;73.30
47825;DHT22;33589;48.242;14.676;2024-01-06T09:12:17;24.30;73.70
47825;DHT22;33589;48.242;14.676;2024-01-06T09:14:43;24.40;74.30
47825;DHT22;33589;48.242;14.676;2024-01-06T09:17:09;24.40;75.90
47825;DHT22;33589;48.242;14.676;2024-01-06T09:19:34;24.40;78.70
47825;DHT22;33589;48.242;14.676;2024-01-06T09:22:00;24.20;79.00
47825;DHT22;33589;48.242;14.676;2024-01-06T09:24:26;24.20;79.50
47825;DHT22;33589;48.242;14.676;2024-01-06T09:26:52;24.20;79.00
47825;DHT22;33589;48.242;14.676;2024-01-06T09:29:18;24.30;78.90
47825;DHT22;33589;48.242;14.676;2024-01-06T09:31:43;24.40;78.70
47825;DHT22;33589;48.242;14.676;2024-01-06T09:34:10;24.50;78.40
47825;DHT22;33589;48.242;14.676;2024-01-06T09:36:36;24.50;78.10
47825;DHT22;33589;48.242;14.676;2024-01-06T09:39:02;24.50;78.10
47825;DHT22;33589;48.242;14.676;2024-01-06T09:41:28;24.50;78.00
47825;DHT22;33589;48.242;14.676;2024-01-06T09:43:53;24.60;78.00
47825;DHT22;33589;48.242;14.676;2024-01-06T09:46:27;24.60;77.90
47825;DHT22;33589;48.242;14.676;2024-01-06T09:48:54;24.60;77.80
47825;DHT22;33589;48.242;14.676;2024-01-06T09:51:21;24.60;77.60
47825;DHT22;33589;48.242;14.676;2024-01-06T09:53:59;24.40;77.70
47825;DHT22;33589;48.242;14.676;2024-01-06T09:56:27;24.30;78.00
47825;DHT22;33589;48.242;14.676;2024-01-06T09:58:54;24.30;78.30
47825;DHT22;33589;48.242;14.676;2024-01-06T10:01:20;24.30;78.30
47825;DHT22;33589;48.242;14.676;2024-01-06T10:03:46;24.40;78.20
47825;DHT22;33589;48.242;14.676;2024-01-06T10:06:15;24.50;78.00
47825;DHT22;33589;48.242;14.676;2024-01-06T10:08:48;24.50;77.70
47825;DHT22;33589;48.242;14.676;2024-01-06T10:11:14;24.60;77.50
47825;DHT22;33589;48.242;14.676;2024-01-06T10:13:40;24.60;77.80
47825;DHT22;33589;48.242;14.676;2024-01-06T10:16:06;24.60;77.60
47825;DHT22;33589;48.242;14.676;2024-01-06T10:18:32;24.60;77.70
47825;DHT22;33589;48.242;14.676;2024-01-06T10:20:59;24.60;77.80
47825;DHT22;33589;48.242;14.676;2024-01-06T10:23:29;24.70;77.90
47825;DHT22;33589;48.242;14.676;2024-01-06T10:25:55;24.60;77.90
47825;DHT22;33589;48.242;14.676;2024-01-06T10:28:21;24.50;77.90
47825;DHT22;33589;48.242;14.676;2024-01-06T10:30:49;24.60;77.80
47825;DHT22;33589;48.242;14.676;2024-01-06T10:33:16;24.50;77.90
47825;DHT22;33589;48.242;14.676;2024-01-06T10:35:42;24.60;77.90
47825;DHT22;33589;48.242;14.676;2024-01-06T10:38:10;24.60;77.90
47825;DHT22;33589;48.242;14.676;2024-01-06T10:40:35;24.70;77.80
47825;DHT22;33589;48.242;14.676;2024-01-06T10:43:01;24.50;78.00
47825;DHT22;33589;48.242;14.676;2024-01-06T10:45:29;24.40;78.10
47825;DHT22;33589;48.242;14.676;2024-01-06T10:47:57;24.50;78.10
47825;DHT22;33589;48.242;14.676;2024-01-06T10:50:25;24.50;78.30
47825;DHT22;33589;48.242;14.676;2024-01-06T10:52:55;24.50;78.20
47825;DHT22;33589;48.242;14.676;2024-01-06T10:55:23;24.50;78.10
47825;DHT22;33589;48.242;14.676;2024-01-06T10:57:51;24.50;78.20
47825;DHT22;33589;48.242;14.676;2024-01-06T11:00:18;24.50;78.00
47825;DHT22;33589;48.242;14.676;2024-01-06T11:02:44;24.60;77.90
47825;DHT22;33589;48.242;14.676;2024-01-06T11:05:11;24.50;77.90
47825;DHT22;33589;48.242;14.676;2024-01-06T11:07:39;24.60;77.80
47825;DHT22;33589;48.242;14.676;2024-01-06T11:10:14;24.60;77.60
47825;DHT22;33589;48.242;14.676;2024-01-06T11:12:42;24.50;77.60
47825;DHT22;33589;48.242;14.676;2024-01-06T11:15:08;24.50;77.90
47825;DHT22;33589;48.242;14.676;2024-01-06T11:17:53;24.50;77.90
47825;DHT22;33589;48.242;14.676;2024-01-06T11:20:22;24.50;78.00
47825;DHT22;33589;48.242;14.676;2024-01-06T11:22:48;24.50;78.20
47825;DHT22;33589;48.242;14.676;2024-01-06T11:25:19;24.50;77.90
47825;DHT22;33589;48.242;14.676;2024-01-06T11:27:46;24.60;77.70
47825;DHT22;33589;48.242;14.676;2024-01-06T11:32:46;24.70;77.60
47825;DHT22;33589;48.242;14.676;2024-01-06T11:35:13;24.60;77.80
47825;DHT22;33589;48.242;14.676;2024-01-06T11:42:42;24.30;79.00
47825;DHT22;33589;48.242;14.676;2024-01-06T11:45:08;24.10;79.50
47825;DHT22;33589;48.242;14.676;2024-01-06T11:47:35;24.10;79.90
47825;DHT22;33589;48.242;14.676;2024-01-06T11:50:02;24.00;80.00
47825;DHT22;33589;48.242;14.676;2024-01-06T11:52:31;24.00;80.00
47825;DHT22;33589;48.242;14.676;2024-01-06T11:54:57;23.90;80.20
47825;DHT22;33589;48.242;14.676;2024-01-06T11:57:28;23.90;80.00
47825;DHT22;33589;48.242;14.676;2024-01-06T11:59:54;24.10;79.50
47825;DHT22;33589;48.242;14.676;2024-01-06T12:02:20;24.20;79.80
47825;DHT22;33589;48.242;14.676;2024-01-06T12:04:52;24.30;81.30
47825;DHT22;33589;48.242;14.676;2024-01-06T12:07:19;24.30;80.00
47825;DHT22;33589;48.242;14.676;2024-01-06T12:09:50;24.40;80.00
47825;DHT22;33589;48.242;14.676;2024-01-06T12:12:16;24.40;80.80
47825;DHT22;33589;48.242;14.676;2024-01-06T12:14:43;24.50;79.90
47825;DHT22;33589;48.242;14.676;2024-01-06T12:17:09;24.50;79.60
47825;DHT22;33589;48.242;14.676;2024-01-06T12:19:35;24.50;79.50
47825;DHT22;33589;48.242;14.676;2024-01-06T12:22:02;24.60;79.50
47825;DHT22;33589;48.242;14.676;2024-01-06T12:24:28;24.60;79.40
47825;DHT22;33589;48.242;14.676;2024-01-06T12:26:57;24.60;79.80
47825;DHT22;33589;48.242;14.676;2024-01-06T12:29:26;24.50;79.80
47825;DHT22;33589;48.242;14.676;2024-01-06T12:31:55;24.50;79.80
47825;DHT22;33589;48.242;14.676;2024-01-06T12:34:21;24.50;80.00
47825;DHT22;33589;48.242;14.676;2024-01-06T12:36:47;24.50;80.00
47825;DHT22;33589;48.242;14.676;2024-01-06T12:39:13;24.50;79.90
47825;DHT22;33589;48.242;14.676;2024-01-06T12:41:40;24.50;79.60
47825;DHT22;33589;48.242;14.676;2024-01-06T12:44:06;24.60;79.70
47825;DHT22;33589;48.242;14.676;2024-01-06T12:46:33;24.60;79.50
47825;DHT22;33589;48.242;14.676;2024-01-06T12:48:59;24.60;79.50
47825;DHT22;33589;48.242;14.676;2024-01-06T12:51:25;24.60;79.40
47825;DHT22;33589;48.242;14.676;2024-01-06T12:53:50;24.60;79.40
47825;DHT22;33589;48.242;14.676;2024-01-06T12:56:17;24.70;79.50
47825;DHT22;33589;48.242;14.676;2024-01-06T12:58:42;24.70;79.50
47825;DHT22;33589;48.242;14.676;2024-01-06T13:01:10;24.70;79.30
47825;DHT22;33589;48.242;14.676;2024-01-06T13:03:36;24.70;79.30
47825;DHT22;33589;48.242;14.676;2024-01-06T13:06:02;24.70;79.30
47825;DHT22;33589;48.242;14.676;2024-01-06T13:08:28;24.70;79.10
47825;DHT22;33589;48.242;14.676;2024-01-06T13:10:55;24.70;79.10
47825;DHT22;33589;48.242;14.676;2024-01-06T13:13:20;24.60;79.40
47825;DHT22;33589;48.242;14.676;2024-01-06T13:15:46;24.60;79.50
47825;DHT22;33589;48.242;14.676;2024-01-06T13:18:12;24.70;79.60
47825;DHT22;33589;48.242;14.676;2024-01-06T13:20:39;24.70;79.50
47825;DHT22;33589;48.242;14.676;2024-01-06T13:23:06;24.50;79.90
47825;DHT22;33589;48.242;14.676;2024-01-06T13:25:33;24.40;80.40
47825;DHT22;33589;48.242;14.676;2024-01-06T13:27:58;24.30;80.70
47825;DHT22;33589;48.242;14.676;2024-01-06T13:30:25;24.20;80.60
47825;DHT22;33589;48.242;14.676;2024-01-06T13:32:51;24.20;80.90
47825;DHT22;33589;48.242;14.676;2024-01-06T13:35:20;24.20;81.00
47825;DHT22;33589;48.242;14.676;2024-01-06T13:37:54;24.10;81.20
47825;DHT22;33589;48.242;14.676;2024-01-06T13:40:22;24.10;81.30
47825;DHT22;33589;48.242;14.676;2024-01-06T13:42:51;24.10;81.60
47825;DHT22;33589;48.242;14.676;2024-01-06T13:45:18;24.10;81.90
47825;DHT22;33589;48.242;14.676;2024-01-06T13:47:44;24.00;82.10
47825;DHT22;33589;48.242;14.676;2024-01-06T13:50:12;24.10;82.20
47825;DHT22;33589;48.242;14.676;2024-01-06T13:52:38;24.10;82.60
47825;DHT22;33589;48.242;14.676;2024-01-06T13:55:05;24.20;82.40
47825;DHT22;33589;48.242;14.676;2024-01-06T13:57:30;24.10;82.40
47825;DHT22;33589;48.242;14.676;2024-01-06T13:59:56;24.10;83.20
47825;DHT22;33589;48.242;14.676;2024-01-06T14:02:23;24.10;83.20
47825;DHT22;33589;48.242;14.676;2024-01-06T14:04:49;24.00;83.30
47825;DHT22;33589;48.242;14.676;2024-01-06T14:07:15;24.10;83.30
47825;DHT22;33589;48.242;14.676;2024-01-06T14:09:48;24.10;83.50
47825;DHT22;33589;48.242;14.676;2024-01-06T14:12:14;24.10;83.50
47825;DHT22;33589;48.242;14.676;2024-01-06T14:14:40;24.10;83.80
47825;DHT22;33589;48.242;14.676;2024-01-06T14:17:08;24.10;84.20
47825;DHT22;33589;48.242;14.676;2024-01-06T14:19:34;24.10;84.70
47825;DHT22;33589;48.242;14.676;2024-01-06T14:22:00;24.10;84.30
47825;DHT22;33589;48.242;14.676;2024-01-06T14:24:26;24.20;84.50
47825;DHT22;33589;48.242;14.676;2024-01-06T14:26:53;24.20;84.60
47825;DHT22;33589;48.242;14.676;2024-01-06T14:29:19;24.30;84.20
47825;DHT22;33589;48.242;14.676;2024-01-06T14:31:45;24.30;83.90
47825;DHT22;33589;48.242;14.676;2024-01-06T14:34:11;24.30;83.90
47825;DHT22;33589;48.242;14.676;2024-01-06T14:36:37;24.30;83.90
47825;DHT22;33589;48.242;14.676;2024-01-06T14:39:02;24.30;83.80
47825;DHT22;33589;48.242;14.676;2024-01-06T14:41:32;24.30;83.70
47825;DHT22;33589;48.242;14.676;2024-01-06T14:43:58;24.20;83.80
47825;DHT22;33589;48.242;14.676;2024-01-06T14:46:24;24.20;83.80
47825;DHT22;33589;48.242;14.676;2024-01-06T14:48:50;24.30;83.90
47825;DHT22;33589;48.242;14.676;2024-01-06T14:51:17;24.10;84.00
47825;DHT22;33589;48.242;14.676;2024-01-06T14:53:43;24.10;84.10
47825;DHT22;33589;48.242;14.676;2024-01-06T14:56:09;24.20;84.20
47825;DHT22;33589;48.242;14.676;2024-01-06T14:58:34;24.10;84.30
47825;DHT22;33589;48.242;14.676;2024-01-06T15:01:00;24.10;84.40
47825;DHT22;33589;48.242;14.676;2024-01-06T15:03:26;24.00;84.50
47825;DHT22;33589;48.242;14.676;2024-01-06T15:05:52;24.00;84.40
47825;DHT22;33589;48.242;14.676;2024-01-06T15:08:17;24.10;84.30
47825;DHT22;33589;48.242;14.676;2024-01-06T15:10:43;24.10;84.00
47825;DHT22;33589;48.242;14.676;2024-01-06T15:13:09;24.10;84.10
47825;DHT22;33589;48.242;14.676;2024-01-06T15:15:35;24.00;84.10
47825;DHT22;33589;48.242;14.676;2024-01-06T15:18:01;24.00;84.40
47825;DHT22;33589;48.242;14.676;2024-01-06T15:20:27;24.00;84.20
47825;DHT22;33589;48.242;14.676;2024-01-06T15:22:53;24.00;84.30